createdAt,value
2019-03-06T00:00:59.110Z,82.57
2019-03-06T00:03:28.547Z,82.59
2019-03-06T00:05:57.955Z,82.88
2019-03-06T00:08:27.388Z,83.09
2019-03-06T00:10:56.791Z,83.07
2019-03-06T00:13:26.231Z,83.15
2019-03-06T00:15:55.654Z,83.27
2019-03-06T00:18:25.104Z,83.45
2019-03-06T00:20:54.512Z,83.46
2019-03-06T00:23:23.912Z,83.52
2019-03-06T00:25:53.282Z,83.55
2019-03-06T00:28:22.719Z,83.74
2019-03-06T00:30:52.124Z,83.79
2019-03-06T00:33:21.560Z,83.69
2019-03-06T00:35:52.536Z,83.56
2019-03-06T00:38:22.149Z,83.57
2019-03-06T00:40:53.215Z,83.86
2019-03-06T00:43:22.672Z,83.92
2019-03-06T00:45:52.075Z,83.91
2019-03-06T00:48:21.569Z,84.02
2019-03-06T00:50:51.160Z,83.97
2019-03-06T00:53:20.665Z,84.11
2019-03-06T00:55:50.158Z,83.96
2019-03-06T00:58:19.619Z,84.03
2019-03-06T01:00:49.045Z,84.09
2019-03-06T01:03:18.428Z,84.26
2019-03-06T01:05:47.852Z,84.19
2019-03-06T01:08:17.313Z,84.09
2019-03-06T01:10:46.797Z,84.23
2019-03-06T01:13:16.255Z,84.04
2019-03-06T01:15:45.684Z,84.04
2019-03-06T01:18:15.152Z,84.18
2019-03-06T01:20:44.645Z,84.24
2019-03-06T01:23:14.118Z,84.27
2019-03-06T01:25:43.775Z,84.42
2019-03-06T01:28:13.237Z,84.66
2019-03-06T01:30:42.734Z,84.60
2019-03-06T01:33:29.798Z,84.48
2019-03-06T01:36:06.640Z,84.61
2019-03-06T01:38:37.737Z,84.73
2019-03-06T01:41:17.736Z,84.72
2019-03-06T01:43:48.841Z,84.66
2019-03-06T01:46:18.346Z,84.81
2019-03-06T01:48:47.799Z,84.72
2019-03-06T01:51:17.284Z,84.70
2019-03-06T01:53:46.743Z,84.75
2019-03-06T01:56:16.241Z,85.09
2019-03-06T01:58:45.704Z,85.35
2019-03-06T02:01:15.266Z,85.57
2019-03-06T02:03:44.730Z,85.70
2019-03-06T02:06:14.220Z,85.72
2019-03-06T02:08:43.613Z,85.74
2019-03-06T02:11:13.034Z,85.63
2019-03-06T02:13:42.434Z,85.57
2019-03-06T02:16:11.853Z,85.89
2019-03-06T02:18:41.524Z,85.75
2019-03-06T02:21:10.944Z,85.50
2019-03-06T02:23:40.340Z,85.35
2019-03-06T02:26:09.770Z,85.06
2019-03-06T02:28:39.161Z,85.06
2019-03-06T02:31:08.664Z,85.16
2019-03-06T02:33:38.209Z,85.37
2019-03-06T02:36:07.651Z,85.29
2019-03-06T02:38:37.505Z,85.28
2019-03-06T02:41:06.940Z,85.24
2019-03-06T02:43:36.542Z,85.38
2019-03-06T02:46:05.949Z,85.55
2019-03-06T02:48:35.688Z,85.58
2019-03-06T02:51:05.247Z,85.46
2019-03-06T02:53:34.673Z,85.49
2019-03-06T02:56:04.245Z,85.56
2019-03-06T02:58:38.251Z,85.52
2019-03-06T03:01:12.057Z,85.50
2019-03-06T03:03:58.838Z,85.36
2019-03-06T03:06:29.870Z,85.39
2019-03-06T03:08:59.290Z,85.45
2019-03-06T03:11:28.685Z,85.44
2019-03-06T03:13:58.278Z,85.49
2019-03-06T03:16:27.751Z,85.52
2019-03-06T03:18:57.246Z,85.48
2019-03-06T03:21:27.097Z,85.63
2019-03-06T03:23:56.707Z,85.73
2019-03-06T03:26:26.165Z,85.64
2019-03-06T03:28:55.671Z,85.76
2019-03-06T03:31:25.069Z,85.41
2019-03-06T03:33:54.506Z,85.38
2019-03-06T03:36:23.908Z,85.34
2019-03-06T03:38:53.401Z,85.41
2019-03-06T03:41:23.773Z,85.14
2019-03-06T03:43:53.206Z,85.17
2019-03-06T03:46:22.599Z,85.12
2019-03-06T03:48:52.018Z,85.06
2019-03-06T03:51:21.480Z,84.90
2019-03-06T03:53:51.182Z,84.80
2019-03-06T03:56:20.579Z,84.63
2019-03-06T03:58:50.009Z,84.44
2019-03-06T04:01:19.415Z,84.41
2019-03-06T04:03:48.840Z,84.40
2019-03-06T04:06:18.517Z,84.21
2019-03-06T04:08:48.014Z,84.10
2019-03-06T04:11:17.408Z,84.10
2019-03-06T04:13:46.815Z,84.01
2019-03-06T04:16:16.249Z,84.02
2019-03-06T04:18:45.991Z,83.86
2019-03-06T04:21:15.420Z,83.93
2019-03-06T04:23:44.814Z,83.84
2019-03-06T04:26:14.175Z,84.06
2019-03-06T04:28:43.622Z,84.14
2019-03-06T04:31:13.138Z,84.24
2019-03-06T04:33:42.505Z,84.17
2019-03-06T04:36:11.848Z,84.01
2019-03-06T04:38:41.220Z,84.17
2019-03-06T04:41:10.559Z,83.98
2019-03-06T04:43:40.207Z,84.00
2019-03-06T04:46:09.552Z,83.84
2019-03-06T04:48:38.918Z,83.91
2019-03-06T04:51:08.266Z,83.86
2019-03-06T04:53:37.636Z,83.73
2019-03-06T04:56:07.436Z,83.57
2019-03-06T04:58:36.776Z,83.45
2019-03-06T05:01:06.455Z,83.38
2019-03-06T05:03:35.798Z,83.35
2019-03-06T05:06:05.628Z,83.35
2019-03-06T05:08:35.215Z,83.47
2019-03-06T05:11:04.594Z,83.55
2019-03-06T05:13:33.934Z,83.54
2019-03-06T05:16:03.322Z,83.55
2019-03-06T05:18:34.286Z,83.47
2019-03-06T05:21:03.655Z,83.53
2019-03-06T05:23:33.060Z,83.75
2019-03-06T05:26:02.744Z,84.18
2019-03-06T05:28:32.089Z,84.46
2019-03-06T05:31:01.461Z,84.41
2019-03-06T05:33:30.804Z,84.29
2019-03-06T05:36:12.228Z,84.56
2019-03-06T05:38:44.826Z,84.29
2019-03-06T05:41:14.188Z,84.35
2019-03-06T05:43:43.541Z,84.52
2019-03-06T05:46:12.914Z,84.70
2019-03-06T05:48:42.324Z,84.73
2019-03-06T05:51:11.767Z,84.93
2019-03-06T05:53:41.193Z,84.85
2019-03-06T05:56:10.643Z,84.86
2019-03-06T05:58:39.988Z,84.54
2019-03-06T06:01:09.398Z,84.40
2019-03-06T06:03:38.740Z,84.49
2019-03-06T06:06:08.115Z,84.37
2019-03-06T06:08:37.456Z,84.46
2019-03-06T06:11:06.894Z,84.27
2019-03-06T06:13:36.682Z,84.60
2019-03-06T06:16:06.502Z,84.68
2019-03-06T06:18:35.864Z,84.75
2019-03-06T06:21:09.339Z,85.05
2019-03-06T06:23:43.113Z,85.09
2019-03-06T06:26:12.588Z,84.82
2019-03-06T06:28:41.933Z,84.42
2019-03-06T06:31:11.310Z,84.15
2019-03-06T06:33:40.689Z,83.96
2019-03-06T06:36:10.034Z,83.92
2019-03-06T06:38:39.422Z,84.10
2019-03-06T06:41:08.770Z,84.13
2019-03-06T06:43:38.182Z,84.18
2019-03-06T06:46:07.728Z,84.18
2019-03-06T06:48:37.387Z,84.19
2019-03-06T06:51:13.201Z,84.29
2019-03-06T06:53:46.729Z,84.15
2019-03-06T06:56:34.349Z,83.88
2019-03-06T06:59:07.465Z,83.94
2019-03-06T07:01:56.380Z,83.98
2019-03-06T07:04:59.060Z,83.93
2019-03-06T07:07:35.973Z,83.65
2019-03-06T07:10:25.216Z,83.31
2019-03-06T07:13:05.293Z,83.10
2019-03-06T07:15:54.179Z,83.18
2019-03-06T07:18:25.164Z,82.93
2019-03-06T07:20:58.907Z,82.57
2019-03-06T07:23:36.021Z,82.79
2019-03-06T07:26:22.117Z,82.56
2019-03-06T07:28:58.791Z,82.56
2019-03-06T07:31:41.870Z,82.20
2019-03-06T07:34:12.863Z,81.77
2019-03-06T07:36:49.741Z,80.98
2019-03-06T07:39:21.794Z,80.44
2019-03-06T07:41:58.485Z,80.18
2019-03-06T07:44:45.504Z,79.48
2019-03-06T07:47:22.199Z,78.89
2019-03-06T07:49:58.972Z,78.73
2019-03-06T07:52:35.935Z,78.39
2019-03-06T07:55:21.936Z,78.20
2019-03-06T07:58:16.723Z,77.11
2019-03-06T08:00:46.065Z,76.99
2019-03-06T08:03:16.684Z,76.75
2019-03-06T08:05:46.101Z,76.12
2019-03-06T08:08:15.481Z,76.19
2019-03-06T08:10:44.832Z,75.12
2019-03-06T08:13:18.803Z,74.89
2019-03-06T08:15:49.794Z,74.80
2019-03-06T08:18:23.456Z,74.03
2019-03-06T08:21:12.301Z,73.60
2019-03-06T08:23:54.764Z,73.03
2019-03-06T08:26:24.600Z,72.14
2019-03-06T08:28:54.320Z,72.30
2019-03-06T08:31:25.306Z,71.74
2019-03-06T08:33:54.694Z,70.96
2019-03-06T08:36:25.105Z,70.86
2019-03-06T08:38:54.481Z,70.47
2019-03-06T08:41:23.820Z,69.61
2019-03-06T08:43:53.280Z,70.14
2019-03-06T08:46:36.184Z,69.54
2019-03-06T08:49:19.210Z,69.40
2019-03-06T08:51:55.974Z,68.91
2019-03-06T08:54:29.954Z,68.42
2019-03-06T08:57:03.709Z,65.87
2019-03-06T08:59:49.808Z,64.29
2019-03-06T09:02:21.062Z,60.41
2019-03-06T09:04:52.072Z,56.94
2019-03-06T09:07:26.017Z,55.80
2019-03-06T09:10:02.521Z,53.44
2019-03-06T09:12:39.307Z,51.69
2019-03-06T09:15:29.985Z,49.81
2019-03-06T09:18:09.828Z,51.92
2019-03-06T09:20:43.263Z,51.36
2019-03-06T09:23:32.313Z,50.30
2019-03-06T09:26:04.087Z,48.13
2019-03-06T09:28:38.465Z,45.96
2019-03-06T09:31:24.416Z,44.42
2019-03-06T09:34:07.574Z,44.06
2019-03-06T09:36:55.031Z,44.24
2019-03-06T09:39:31.938Z,45.57
2019-03-06T09:42:11.818Z,47.14
2019-03-06T09:44:45.752Z,46.22
2019-03-06T09:47:16.820Z,44.66
2019-03-06T09:49:47.862Z,42.21
2019-03-06T09:52:19.154Z,40.82
2019-03-06T09:54:55.036Z,41.33
2019-03-06T09:57:31.656Z,41.06
2019-03-06T10:00:18.317Z,41.45
2019-03-06T10:02:52.058Z,41.53
2019-03-06T10:05:25.952Z,41.22
2019-03-06T10:08:08.933Z,39.92
2019-03-06T10:10:47.734Z,39.78
2019-03-06T10:13:18.515Z,40.16
2019-03-06T10:15:49.507Z,38.72
2019-03-06T10:18:38.659Z,37.43
2019-03-06T10:21:08.004Z,36.84
2019-03-06T10:23:37.402Z,38.66
2019-03-06T10:26:06.763Z,38.65
2019-03-06T10:28:36.737Z,40.19
2019-03-06T10:31:06.403Z,40.12
2019-03-06T10:33:35.794Z,42.69
2019-03-06T10:36:05.561Z,44.36
2019-03-06T10:38:35.045Z,44.05
2019-03-06T10:41:04.432Z,42.65
2019-03-06T10:43:34.166Z,41.21
2019-03-06T10:46:03.881Z,41.76
2019-03-06T10:48:33.702Z,40.40
2019-03-06T10:51:03.099Z,38.15
2019-03-06T10:53:41.054Z,37.33
2019-03-06T10:56:03.981Z,37.63
2019-03-06T10:58:33.341Z,36.95
2019-03-06T11:01:02.824Z,38.46
2019-03-06T11:03:39.912Z,37.98
2019-03-06T11:06:09.942Z,38.04
2019-03-06T11:08:39.293Z,35.32
2019-03-06T11:11:08.958Z,34.44
2019-03-06T11:13:38.309Z,33.61
2019-03-06T11:16:08.594Z,33.62
2019-03-06T11:18:37.975Z,32.54
2019-03-06T11:21:07.744Z,32.51
2019-03-06T11:23:37.099Z,33.04
2019-03-06T11:26:07.463Z,33.98
2019-03-06T11:28:36.952Z,33.92
2019-03-06T11:31:06.408Z,33.08
2019-03-06T11:33:36.946Z,32.62
2019-03-06T11:36:06.694Z,32.15
2019-03-06T11:38:36.955Z,31.14
2019-03-06T11:41:06.903Z,31.96
2019-03-06T11:43:36.581Z,31.28
2019-03-06T11:46:06.210Z,30.43
2019-03-06T11:48:35.561Z,30.73
2019-03-06T11:51:05.878Z,29.35
2019-03-06T11:53:35.948Z,29.38
2019-03-06T11:56:05.846Z,29.34
2019-03-06T11:58:35.269Z,30.13
2019-03-06T12:01:07.962Z,29.32
2019-03-06T12:03:37.714Z,30.35
2019-03-06T12:06:07.283Z,29.69
2019-03-06T12:08:45.676Z,28.24
2019-03-06T12:11:08.649Z,27.35
2019-03-06T12:13:38.011Z,28.04
2019-03-06T12:16:07.737Z,28.50
2019-03-06T12:18:37.093Z,28.52
2019-03-06T12:21:06.920Z,28.50
2019-03-06T12:23:36.365Z,27.17
2019-03-06T12:26:05.717Z,26.99
2019-03-06T12:28:35.100Z,27.10
2019-03-06T12:31:07.467Z,28.29
2019-03-06T12:33:36.952Z,27.49
2019-03-06T12:36:06.645Z,26.99
2019-03-06T12:38:36.046Z,25.80
2019-03-06T12:41:05.392Z,25.63
2019-03-06T12:43:35.015Z,25.50
2019-03-06T12:46:10.321Z,25.86
2019-03-06T12:48:39.970Z,25.92
2019-03-06T12:51:09.482Z,24.86
2019-03-06T12:53:38.872Z,24.67
2019-03-06T12:56:08.404Z,24.65
2019-03-06T12:58:37.948Z,25.29
2019-03-06T13:01:07.359Z,25.84
2019-03-06T13:03:36.801Z,25.80
2019-03-06T13:06:06.691Z,24.94
2019-03-06T13:08:36.467Z,25.23
2019-03-06T13:11:05.861Z,25.89
2019-03-06T13:13:36.050Z,25.78
2019-03-06T13:16:05.392Z,27.03
2019-03-06T13:18:34.866Z,26.17
2019-03-06T13:21:05.249Z,25.74
2019-03-06T13:23:34.825Z,25.81
2019-03-06T13:26:10.232Z,25.08
2019-03-06T13:28:35.330Z,26.05
2019-03-06T13:31:04.826Z,27.02
2019-03-06T13:33:44.796Z,29.37
2019-03-06T13:36:14.217Z,30.11
2019-03-06T13:38:43.672Z,31.41
2019-03-06T13:41:14.485Z,32.26
2019-03-06T13:43:44.519Z,33.22
2019-03-06T13:46:13.972Z,34.18
2019-03-06T13:48:43.359Z,35.05
2019-03-06T13:51:12.776Z,35.70
2019-03-06T13:53:42.166Z,36.32
2019-03-06T13:56:11.556Z,36.94
2019-03-06T13:58:40.936Z,37.31
2019-03-06T14:01:10.331Z,37.61
2019-03-06T14:03:39.816Z,37.91
2019-03-06T14:06:09.624Z,37.41
2019-03-06T14:08:39.065Z,36.95
2019-03-06T14:11:08.413Z,36.41
2019-03-06T14:13:38.093Z,36.54
2019-03-06T14:16:07.445Z,36.89
2019-03-06T14:18:37.167Z,36.62
2019-03-06T14:21:06.538Z,36.71
2019-03-06T14:23:35.883Z,35.58
2019-03-06T14:26:06.795Z,35.65
2019-03-06T14:28:36.254Z,35.89
2019-03-06T14:31:06.085Z,36.10
2019-03-06T14:33:35.435Z,36.67
2019-03-06T14:36:04.891Z,36.55
2019-03-06T14:38:34.253Z,37.17
2019-03-06T14:41:03.633Z,38.24
2019-03-06T14:43:33.018Z,38.65
2019-03-06T14:46:02.394Z,39.11
2019-03-06T14:48:31.747Z,39.44
2019-03-06T14:51:01.132Z,40.18
2019-03-06T14:53:30.555Z,41.05
2019-03-06T14:55:59.929Z,41.67
2019-03-06T14:58:29.284Z,42.23
2019-03-06T15:00:58.667Z,42.45
2019-03-06T15:03:28.013Z,42.25
2019-03-06T15:05:57.395Z,41.98
2019-03-06T15:08:26.745Z,41.78
2019-03-06T15:10:56.119Z,41.85
2019-03-06T15:13:25.468Z,41.59
2019-03-06T15:15:55.041Z,40.92
2019-03-06T15:18:24.387Z,41.82
2019-03-06T15:20:53.761Z,41.46
2019-03-06T15:23:23.108Z,41.73
2019-03-06T15:25:52.491Z,41.93
2019-03-06T15:28:21.918Z,42.37
2019-03-06T15:30:51.368Z,42.46
2019-03-06T15:33:20.721Z,42.81
2019-03-06T15:35:50.102Z,43.46
2019-03-06T15:38:19.453Z,43.78
2019-03-06T15:40:48.862Z,44.42
2019-03-06T15:43:19.782Z,45.02
2019-03-06T15:45:49.177Z,45.29
2019-03-06T15:48:18.554Z,45.64
2019-03-06T15:50:47.901Z,46.09
2019-03-06T15:53:24.162Z,46.73
2019-03-06T15:55:48.342Z,47.02
2019-03-06T15:58:17.731Z,47.26
2019-03-06T16:00:47.085Z,47.41
2019-03-06T16:03:16.476Z,47.80
2019-03-06T16:05:45.825Z,48.08
2019-03-06T16:08:15.204Z,48.18
2019-03-06T16:10:44.833Z,48.54
2019-03-06T16:13:14.213Z,49.01
2019-03-06T16:15:43.641Z,49.25
2019-03-06T16:18:13.037Z,49.45
2019-03-06T16:20:42.380Z,49.67
2019-03-06T16:23:11.825Z,50.08
2019-03-06T16:25:41.434Z,50.27
2019-03-06T16:28:10.815Z,50.34
2019-03-06T16:30:40.161Z,50.58
2019-03-06T16:33:09.765Z,50.78
2019-03-06T16:35:39.118Z,51.11
2019-03-06T16:38:08.948Z,51.00
2019-03-06T16:40:38.364Z,51.29
2019-03-06T16:43:07.743Z,51.28
2019-03-06T16:45:37.164Z,51.28
2019-03-06T16:48:06.888Z,51.37
2019-03-06T16:50:36.234Z,51.44
2019-03-06T16:53:06.033Z,51.48
2019-03-06T16:55:35.376Z,51.33
2019-03-06T16:58:05.023Z,51.57
2019-03-06T17:00:35.305Z,51.49
2019-03-06T17:03:05.753Z,51.51
2019-03-06T17:05:35.192Z,51.78
2019-03-06T17:08:04.690Z,51.96
2019-03-06T17:10:36.172Z,52.05
2019-03-06T17:13:05.597Z,52.31
2019-03-06T17:15:34.975Z,52.64
2019-03-06T17:18:04.321Z,52.75
2019-03-06T17:20:37.146Z,52.90
2019-03-06T17:23:06.915Z,53.26
2019-03-06T17:25:36.292Z,53.20
2019-03-06T17:28:05.843Z,53.38
2019-03-06T17:30:36.120Z,53.35
2019-03-06T17:33:10.973Z,53.42
2019-03-06T17:35:40.347Z,53.39
2019-03-06T17:38:14.511Z,53.60
2019-03-06T17:40:44.680Z,54.14
2019-03-06T17:43:14.108Z,54.00
2019-03-06T17:45:43.839Z,53.94
2019-03-06T17:48:13.176Z,53.69
2019-03-06T17:50:42.565Z,53.71
2019-03-06T17:53:11.911Z,53.54
2019-03-06T17:55:41.285Z,53.69
2019-03-06T17:58:10.636Z,53.84
2019-03-06T18:00:44.720Z,53.53
2019-03-06T18:03:16.173Z,53.69
2019-03-06T18:05:45.545Z,53.51
2019-03-06T18:08:14.888Z,53.52
2019-03-06T18:10:44.340Z,53.42
2019-03-06T18:13:13.866Z,53.55
2019-03-06T18:15:44.493Z,53.71
2019-03-06T18:18:14.039Z,53.71
2019-03-06T18:20:43.412Z,54.08
2019-03-06T18:23:12.774Z,53.49
2019-03-06T18:25:42.153Z,53.44
2019-03-06T18:28:11.574Z,53.55
2019-03-06T18:30:41.037Z,53.34
2019-03-06T18:33:10.548Z,53.12
2019-03-06T18:35:39.920Z,53.34
2019-03-06T18:38:09.265Z,53.04
2019-03-06T18:40:38.952Z,53.55
2019-03-06T18:43:09.800Z,53.42
2019-03-06T18:45:39.179Z,53.78
2019-03-06T18:48:08.526Z,53.27
2019-03-06T18:50:38.141Z,53.41
2019-03-06T18:53:07.561Z,53.97
2019-03-06T18:55:37.201Z,54.59
2019-03-06T18:58:06.919Z,53.67
2019-03-06T19:00:36.376Z,53.69
2019-03-06T19:03:05.731Z,53.40
2019-03-06T19:05:36.961Z,53.84
2019-03-06T19:08:06.950Z,53.94
2019-03-06T19:10:37.014Z,54.33
2019-03-06T19:13:06.928Z,54.14
2019-03-06T19:15:36.296Z,54.06
2019-03-06T19:18:06.136Z,54.78
2019-03-06T19:20:35.488Z,54.98
2019-03-06T19:23:04.942Z,54.94
2019-03-06T19:25:34.429Z,54.92
2019-03-06T19:28:04.315Z,54.78
2019-03-06T19:30:33.666Z,54.79
2019-03-06T19:33:03.105Z,56.03
2019-03-06T19:35:32.455Z,55.71
2019-03-06T19:38:01.838Z,56.06
2019-03-06T19:40:31.252Z,56.30
2019-03-06T19:43:00.703Z,56.69
2019-03-06T19:45:30.114Z,56.53
2019-03-06T19:47:59.553Z,57.05
2019-03-06T19:50:28.982Z,57.10
2019-03-06T19:52:58.432Z,57.12
2019-03-06T19:55:27.856Z,57.54
2019-03-06T19:58:08.354Z,57.53
2019-03-06T20:00:38.177Z,57.74
2019-03-06T20:03:09.005Z,57.77
2019-03-06T20:05:40.658Z,57.95
2019-03-06T20:08:12.645Z,58.29
2019-03-06T20:10:42.000Z,58.27
2019-03-06T20:13:12.200Z,58.55
2019-03-06T20:15:42.093Z,58.64
2019-03-06T20:18:11.652Z,58.97
2019-03-06T20:20:41.445Z,58.87
2019-03-06T20:23:10.905Z,58.95
2019-03-06T20:25:40.348Z,59.13
2019-03-06T20:28:09.832Z,58.97
2019-03-06T20:30:39.214Z,59.06
2019-03-06T20:33:08.740Z,58.99
2019-03-06T20:35:38.463Z,59.26
2019-03-06T20:38:07.886Z,59.45
2019-03-06T20:40:37.332Z,59.73
2019-03-06T20:43:07.004Z,60.17
2019-03-06T20:45:36.445Z,60.17
2019-03-06T20:48:05.788Z,60.53
2019-03-06T20:50:35.230Z,60.39
2019-03-06T20:53:04.583Z,60.74
2019-03-06T20:55:33.960Z,60.42
2019-03-06T20:58:03.583Z,60.67
2019-03-06T21:00:32.955Z,60.68
2019-03-06T21:03:02.293Z,60.70
2019-03-06T21:05:31.667Z,60.94
2019-03-06T21:08:01.013Z,61.39
2019-03-06T21:10:30.385Z,61.34
2019-03-06T21:12:59.723Z,61.54
2019-03-06T21:15:29.097Z,61.58
2019-03-06T21:17:58.439Z,61.75
2019-03-06T21:20:27.815Z,61.82
2019-03-06T21:22:57.159Z,61.73
2019-03-06T21:25:26.536Z,61.78
2019-03-06T21:27:55.879Z,61.69
2019-03-06T21:30:27.294Z,61.56
2019-03-06T21:32:56.638Z,61.38
2019-03-06T21:35:26.080Z,61.66
2019-03-06T21:37:55.522Z,61.60
2019-03-06T21:40:26.398Z,61.74
2019-03-06T21:42:55.732Z,61.66
2019-03-06T21:45:25.176Z,61.49
2019-03-06T21:47:54.515Z,61.48
2019-03-06T21:50:23.894Z,61.59
2019-03-06T21:52:53.237Z,61.38
2019-03-06T21:55:22.598Z,61.32
2019-03-06T21:57:51.992Z,61.58
2019-03-06T22:00:22.399Z,61.21
2019-03-06T22:02:51.742Z,61.46
2019-03-06T22:05:21.108Z,61.39
2019-03-06T22:07:51.430Z,61.32
2019-03-06T22:10:20.860Z,61.42
2019-03-06T22:12:50.281Z,61.56
2019-03-06T22:15:23.075Z,61.45
2019-03-06T22:17:52.415Z,61.40
2019-03-06T22:20:21.779Z,61.82
2019-03-06T22:22:51.191Z,61.67
2019-03-06T22:25:20.738Z,61.22
2019-03-06T22:27:50.076Z,61.31
2019-03-06T22:30:23.386Z,61.29
2019-03-06T22:32:52.863Z,61.54
2019-03-06T22:35:22.308Z,61.32
2019-03-06T22:37:51.660Z,61.36
2019-03-06T22:40:21.091Z,61.50
2019-03-06T22:42:50.452Z,61.44
2019-03-06T22:45:21.800Z,61.80
2019-03-06T22:47:51.142Z,61.82
2019-03-06T22:50:20.715Z,62.13
2019-03-06T22:52:50.336Z,62.26
2019-03-06T22:55:20.126Z,62.20
2019-03-06T22:57:49.496Z,62.31
2019-03-06T23:00:30.830Z,62.00
2019-03-06T23:03:00.342Z,62.34
2019-03-06T23:05:33.676Z,62.21
2019-03-06T23:08:03.096Z,62.55
2019-03-06T23:10:32.472Z,62.72
2019-03-06T23:13:01.851Z,62.73
2019-03-06T23:15:31.192Z,62.43
2019-03-06T23:18:00.744Z,63.42
2019-03-06T23:20:30.085Z,62.95
2019-03-06T23:22:59.449Z,62.99
2019-03-06T23:25:28.793Z,63.29
2019-03-06T23:27:58.167Z,62.91
2019-03-06T23:30:27.507Z,62.90
2019-03-06T23:32:56.871Z,62.93
2019-03-06T23:35:26.211Z,63.83
2019-03-06T23:37:55.582Z,63.61
2019-03-06T23:40:24.924Z,63.30
2019-03-06T23:42:54.380Z,63.31
2019-03-06T23:45:23.931Z,63.30
2019-03-06T23:47:53.375Z,63.42
2019-03-06T23:50:22.711Z,63.57
2019-03-06T23:53:06.234Z,63.74
2019-03-06T23:55:35.584Z,63.78
2019-03-06T23:58:05.025Z,63.89
